Morning Cedar — D7LR — position and weather

sailwx.info

Track history (hours):
 
Tides and Currents Weather Stations Pressure Air Temp Water Temp Dewpoint Dewpoint Depression Visibility Wind Speed Wind Dir Waves Ship Positions

Morning Cedar

Last reported at 2016-Aug-27 13:16 UTC. Time now 2016-Aug-29 21:35 UTC.
Position N 36°27' W 075°03'.

Length 269 m; draft 15.2 m.

Type: Cargo ship. MMSI: 440106000.

Date/timePositionNaut miles runAvg speedWind from/ knotsBaromVisibWave heightAir tempDewpointWater temp
2016-Aug-27 13:16N 36°27' W 075°03'40 9.9
2016-Aug-27 09:12N 36°49' W 075°45'6 9.3
2016-Aug-27 08:33N 36°52' W 075°52'9 8.9
2016-Aug-27 07:33N 36°57' W 076°01'8 8.5
2016-Aug-27 06:34N 36°60' W 076°11'10 4.8
2016-Aug-27 04:30N 36°53' W 076°20'0 0.0
2016-Aug-27 03:33N 36°53' W 076°20'0 0.0
2016-Aug-27 02:33N 36°53' W 076°20'0 0.0
2016-Aug-27 01:33N 36°53' W 076°20'0 0.0
2016-Aug-27 00:33N 36°53' W 076°20'0 0.0
2016-Aug-26 23:33N 36°53' W 076°20'0 0.0
2016-Aug-26 22:33N 36°53' W 076°20'0 0.0
2016-Aug-26 21:33N 36°53' W 076°20'0 0.0
2016-Aug-26 20:33N 36°53' W 076°20'0 0.0
2016-Aug-26 19:30N 36°53' W 076°20'0 0.0
2016-Aug-26 18:33N 36°53' W 076°20'0 0.0
2016-Aug-26 17:33N 36°53' W 076°20'0 0.0
2016-Aug-26 16:33N 36°53' W 076°20'0 0.0
2016-Aug-26 15:33N 36°53' W 076°20'0 0.0
2016-Aug-26 14:33N 36°53' W 076°20'0 0.0
2016-Aug-26 13:33N 36°53' W 076°20'0 0.0
2016-Aug-26 12:33N 36°53' W 076°20'0 0.0
2016-Aug-26 11:33N 36°53' W 076°20'0 0.0
2016-Aug-26 10:33N 36°53' W 076°20'0 0.0
2016-Aug-26 09:30N 36°53' W 076°20'0 0.0
2016-Aug-26 08:33N 36°53' W 076°20'0 0.0
2016-Aug-26 07:33N 36°53' W 076°20'0 0.0
2016-Aug-26 06:27N 36°53' W 076°20'0 0.0
2016-Aug-26 04:33N 36°53' W 076°20'0 0.0
2016-Aug-26 03:33N 36°53' W 076°20'0 0.0
2016-Aug-26 02:33N 36°53' W 076°20'2 2.4
2016-Aug-26 01:34N 36°55' W 076°20'9 7.1
2016-Aug-26 00:20N 36°60' W 076°11'810.7
2016-Aug-25 23:33N 36°57' W 076°01'8 8.1
2016-Aug-25 22:33N 37°04' W 076°06'11 9.0
2016-Aug-25 21:23N 37°15' W 076°08'3 3.8
2016-Aug-25 20:33N 37°17' W 076°06'0 0.0
2016-Aug-25 13:09N 37°17' W 076°06'0 0.1
2016-Aug-25 12:18N 37°17' W 076°06'0 0.3
2016-Aug-25 11:30N 37°17' W 076°06'1 0.0
2016-Aug-24 09:29N 37°19' W 076°06'5210.4
2016-Aug-24 04:29N 38°10' W 076°14'3511.6
2016-Aug-24 01:28N 38°44' W 076°26'1011.5
2016-Aug-24 00:33N 38°54' W 076°23'1010.1
2016-Aug-23 23:32N 39°05' W 076°24'9 8.9
2016-Aug-23 22:33N 39°12' W 076°30'5 4.7
2016-Aug-23 21:34N 39°15' W 076°34'0 0.1
2016-Aug-23 20:32N 39°15' W 076°34'0 0.0
2016-Aug-23 19:30N 39°15' W 076°34'0 0.0
2016-Aug-23 18:30N 39°15' W 076°34'0 0.0
2016-Aug-23 17:32N 39°15' W 076°34'0 0.0
2016-Aug-23 16:32N 39°15' W 076°34'0 0.0
2016-Aug-23 15:30N 39°15' W 076°34'0 0.0
2016-Aug-23 14:30N 39°15' W 076°34'0 0.0
2016-Aug-23 13:30N 39°15' W 076°34'0 0.0
2016-Aug-23 12:30N 39°15' W 076°34'0 0.0
2016-Aug-23 11:32N 39°15' W 076°34'0 0.0
2016-Aug-23 10:32N 39°15' W 076°34'0 0.0
2016-Aug-23 09:32N 39°15' W 076°34'0 0.0
2016-Aug-23 08:30N 39°15' W 076°34'0 0.0
2016-Aug-23 07:30N 39°15' W 076°34'0 0.0
2016-Aug-23 06:32N 39°15' W 076°34'0 0.0
2016-Aug-23 05:32N 39°15' W 076°34'0 0.0
2016-Aug-23 04:32N 39°15' W 076°34'0 0.0
2016-Aug-23 03:32N 39°15' W 076°34'0 0.0
2016-Aug-23 02:32N 39°15' W 076°34'0 0.0
2016-Aug-23 01:30N 39°15' W 076°34'0 0.0
2016-Aug-23 00:30N 39°15' W 076°34'0 0.0
2016-Aug-22 23:10N 39°15' W 076°34'0 0.0
2016-Aug-22 22:30N 39°15' W 076°34'0 0.0
2016-Aug-22 21:30N 39°15' W 076°34'0 0.0
2016-Aug-22 20:30N 39°15' W 076°34'0 0.0
2016-Aug-22 19:30N 39°15' W 076°34'0 0.0
2016-Aug-22 18:33N 39°15' W 076°34'0 0.0
2016-Aug-22 17:30N 39°15' W 076°34'0 0.0
2016-Aug-22 16:30N 39°15' W 076°34'0 0.0
2016-Aug-22 15:30N 39°15' W 076°34'0 0.0
2016-Aug-22 14:20N 39°15' W 076°34'0 0.0
2016-Aug-22 13:30N 39°15' W 076°34'0 0.0
2016-Aug-22 12:30N 39°15' W 076°34'0 0.0
2016-Aug-22 11:33N 39°15' W 076°34'0 0.3
2016-Aug-22 10:32N 39°15' W 076°34'5 4.9
2016-Aug-22 09:34N 39°12' W 076°30'7 7.1
2016-Aug-22 08:33N 39°06' W 076°24'1010.0
2016-Aug-22 07:33N 38°56' W 076°24'2 1.9
2016-Aug-22 06:32N 38°54' W 076°25'0 0.0
2016-Aug-22 05:32N 38°54' W 076°25'0 0.0
2016-Aug-22 04:32N 38°54' W 076°25'0 0.0
2016-Aug-22 03:32N 38°54' W 076°25'0 0.3
2016-Aug-22 02:32N 38°55' W 076°25'0 0.1
2016-Aug-22 01:29N 38°55' W 076°25'0 0.0
2016-Aug-22 00:26N 38°55' W 076°25'0 0.2
2016-Aug-21 23:15N 38°55' W 076°25'1 1.7
2016-Aug-21 22:33N 38°53' W 076°25'5112.5
2016-Aug-21 18:25N 38°03' W 076°13'5812.0
2016-Aug-21 13:32N 37°04' W 076°06'1212.2
2016-Aug-21 12:33N 36°56' W 075°56'9 9.3
2016-Aug-21 11:32N 36°50' W 075°46'1410.9
2016-Aug-21 10:13N 36°45' W 075°30'8 9.6
2016-Aug-21 09:22N 36°52' W 075°25'7 8.5
2016-Aug-21 08:33N 36°58' W 075°29'1110.9
2016-Aug-21 07:33N 36°57' W 075°16'1211.3
2016-Aug-21 06:32N 36°56' W 075°01'2411.8
2016-Aug-21 04:32N 36°59' W 074°32'  
Track history (hours):
 
Tides and Currents Weather Stations Pressure Air Temp Water Temp Dewpoint Dewpoint Depression Visibility Wind Speed Wind Dir Waves Ship Positions

Morning Cedar

Last reported at 2016-Aug-27 13:16 UTC. Time now 2016-Aug-29 21:35 UTC.
Position N 36°27' W 075°03'.

Length 269 m; draft 15.2 m.

Type: Cargo ship. MMSI: 440106000.

Date/timePositionNaut miles runAvg speedWind from/ knotsBaromVisibWave heightAir tempDewpointWater temp
2016-Aug-27 13:16N 36°27' W 075°03'40 9.9
2016-Aug-27 09:12N 36°49' W 075°45'6 9.3
2016-Aug-27 08:33N 36°52' W 075°52'9 8.9
2016-Aug-27 07:33N 36°57' W 076°01'8 8.5
2016-Aug-27 06:34N 36°60' W 076°11'10 4.8
2016-Aug-27 04:30N 36°53' W 076°20'0 0.0
2016-Aug-27 03:33N 36°53' W 076°20'0 0.0
2016-Aug-27 02:33N 36°53' W 076°20'0 0.0
2016-Aug-27 01:33N 36°53' W 076°20'0 0.0
2016-Aug-27 00:33N 36°53' W 076°20'0 0.0
2016-Aug-26 23:33N 36°53' W 076°20'0 0.0
2016-Aug-26 22:33N 36°53' W 076°20'0 0.0
2016-Aug-26 21:33N 36°53' W 076°20'0 0.0
2016-Aug-26 20:33N 36°53' W 076°20'0 0.0
2016-Aug-26 19:30N 36°53' W 076°20'0 0.0
2016-Aug-26 18:33N 36°53' W 076°20'0 0.0
2016-Aug-26 17:33N 36°53' W 076°20'0 0.0
2016-Aug-26 16:33N 36°53' W 076°20'0 0.0
2016-Aug-26 15:33N 36°53' W 076°20'0 0.0
2016-Aug-26 14:33N 36°53' W 076°20'0 0.0
2016-Aug-26 13:33N 36°53' W 076°20'0 0.0
2016-Aug-26 12:33N 36°53' W 076°20'0 0.0
2016-Aug-26 11:33N 36°53' W 076°20'0 0.0
2016-Aug-26 10:33N 36°53' W 076°20'0 0.0
2016-Aug-26 09:30N 36°53' W 076°20'0 0.0
2016-Aug-26 08:33N 36°53' W 076°20'0 0.0
2016-Aug-26 07:33N 36°53' W 076°20'0 0.0
2016-Aug-26 06:27N 36°53' W 076°20'0 0.0
2016-Aug-26 04:33N 36°53' W 076°20'0 0.0
2016-Aug-26 03:33N 36°53' W 076°20'0 0.0
2016-Aug-26 02:33N 36°53' W 076°20'2 2.4
2016-Aug-26 01:34N 36°55' W 076°20'9 7.1
2016-Aug-26 00:20N 36°60' W 076°11'810.7
2016-Aug-25 23:33N 36°57' W 076°01'8 8.1
2016-Aug-25 22:33N 37°04' W 076°06'11 9.0
2016-Aug-25 21:23N 37°15' W 076°08'3 3.8
2016-Aug-25 20:33N 37°17' W 076°06'0 0.0
2016-Aug-25 13:09N 37°17' W 076°06'0 0.1
2016-Aug-25 12:18N 37°17' W 076°06'0 0.3
2016-Aug-25 11:30N 37°17' W 076°06'1 0.0
2016-Aug-24 09:29N 37°19' W 076°06'5210.4
2016-Aug-24 04:29N 38°10' W 076°14'3511.6
2016-Aug-24 01:28N 38°44' W 076°26'1011.5
2016-Aug-24 00:33N 38°54' W 076°23'1010.1
2016-Aug-23 23:32N 39°05' W 076°24'9 8.9
2016-Aug-23 22:33N 39°12' W 076°30'5 4.7
2016-Aug-23 21:34N 39°15' W 076°34'0 0.1
2016-Aug-23 20:32N 39°15' W 076°34'0 0.0
2016-Aug-23 19:30N 39°15' W 076°34'0 0.0
2016-Aug-23 18:30N 39°15' W 076°34'0 0.0
2016-Aug-23 17:32N 39°15' W 076°34'0 0.0
2016-Aug-23 16:32N 39°15' W 076°34'0 0.0
2016-Aug-23 15:30N 39°15' W 076°34'0 0.0
2016-Aug-23 14:30N 39°15' W 076°34'0 0.0
2016-Aug-23 13:30N 39°15' W 076°34'0 0.0
2016-Aug-23 12:30N 39°15' W 076°34'0 0.0
2016-Aug-23 11:32N 39°15' W 076°34'0 0.0
2016-Aug-23 10:32N 39°15' W 076°34'0 0.0
2016-Aug-23 09:32N 39°15' W 076°34'0 0.0
2016-Aug-23 08:30N 39°15' W 076°34'0 0.0
2016-Aug-23 07:30N 39°15' W 076°34'0 0.0
2016-Aug-23 06:32N 39°15' W 076°34'0 0.0
2016-Aug-23 05:32N 39°15' W 076°34'0 0.0
2016-Aug-23 04:32N 39°15' W 076°34'0 0.0
2016-Aug-23 03:32N 39°15' W 076°34'0 0.0
2016-Aug-23 02:32N 39°15' W 076°34'0 0.0
2016-Aug-23 01:30N 39°15' W 076°34'0 0.0
2016-Aug-23 00:30N 39°15' W 076°34'0 0.0
2016-Aug-22 23:10N 39°15' W 076°34'0 0.0
2016-Aug-22 22:30N 39°15' W 076°34'0 0.0
2016-Aug-22 21:30N 39°15' W 076°34'0 0.0
2016-Aug-22 20:30N 39°15' W 076°34'0 0.0
2016-Aug-22 19:30N 39°15' W 076°34'0 0.0
2016-Aug-22 18:33N 39°15' W 076°34'0 0.0
2016-Aug-22 17:30N 39°15' W 076°34'0 0.0
2016-Aug-22 16:30N 39°15' W 076°34'0 0.0
2016-Aug-22 15:30N 39°15' W 076°34'0 0.0
2016-Aug-22 14:20N 39°15' W 076°34'0 0.0
2016-Aug-22 13:30N 39°15' W 076°34'0 0.0
2016-Aug-22 12:30N 39°15' W 076°34'0 0.0
2016-Aug-22 11:33N 39°15' W 076°34'0 0.3
2016-Aug-22 10:32N 39°15' W 076°34'5 4.9
2016-Aug-22 09:34N 39°12' W 076°30'7 7.1
2016-Aug-22 08:33N 39°06' W 076°24'1010.0
2016-Aug-22 07:33N 38°56' W 076°24'2 1.9
2016-Aug-22 06:32N 38°54' W 076°25'0 0.0
2016-Aug-22 05:32N 38°54' W 076°25'0 0.0
2016-Aug-22 04:32N 38°54' W 076°25'0 0.0
2016-Aug-22 03:32N 38°54' W 076°25'0 0.3
2016-Aug-22 02:32N 38°55' W 076°25'0 0.1
2016-Aug-22 01:29N 38°55' W 076°25'0 0.0
2016-Aug-22 00:26N 38°55' W 076°25'0 0.2
2016-Aug-21 23:15N 38°55' W 076°25'1 1.7
2016-Aug-21 22:33N 38°53' W 076°25'5112.5
2016-Aug-21 18:25N 38°03' W 076°13'5812.0
2016-Aug-21 13:32N 37°04' W 076°06'1212.2
2016-Aug-21 12:33N 36°56' W 075°56'9 9.3
2016-Aug-21 11:32N 36°50' W 075°46'1410.9
2016-Aug-21 10:13N 36°45' W 075°30'8 9.6
2016-Aug-21 09:22N 36°52' W 075°25'7 8.5
2016-Aug-21 08:33N 36°58' W 075°29'1110.9
2016-Aug-21 07:33N 36°57' W 075°16'1211.3
2016-Aug-21 06:32N 36°56' W 075°01'2411.8
2016-Aug-21 04:32N 36°59' W 074°32'  

Dump ship's entire track history